sensor_id;sensor_type;location;lat;lon;timestamp;pressure;altitude;pressure_sealevel;temperature;humidity
71857;BME280;63344;46.980;28.882;2023-03-23T00:01:59;100790.66;;;6.17;81.35
71857;BME280;63344;46.980;28.882;2023-03-23T00:04:25;100795.03;;;6.17;81.60
71857;BME280;63344;46.980;28.882;2023-03-23T00:06:52;100784.59;;;6.11;81.36
71857;BME280;63344;46.980;28.882;2023-03-23T00:09:18;100788.97;;;6.13;82.42
71857;BME280;63344;46.980;28.882;2023-03-23T00:11:50;100785.50;;;6.11;82.53
71857;BME280;63344;46.980;28.882;2023-03-23T00:14:16;100775.00;;;6.07;82.72
71857;BME280;63344;46.980;28.882;2023-03-23T00:16:49;100782.06;;;6.05;82.50
71857;BME280;63344;46.980;28.882;2023-03-23T00:19:16;100788.31;;;5.99;81.66
71857;BME280;63344;46.980;28.882;2023-03-23T00:21:45;100780.47;;;5.93;81.33
71857;BME280;63344;46.980;28.882;2023-03-23T00:24:16;100765.75;;;5.81;81.77
71857;BME280;63344;46.980;28.882;2023-03-23T00:26:46;100771.94;;;5.80;81.77
71857;BME280;63344;46.980;28.882;2023-03-23T00:29:21;100772.91;;;5.74;81.75
71857;BME280;63344;46.980;28.882;2023-03-23T00:31:48;100774.75;;;5.69;81.92
71857;BME280;63344;46.980;28.882;2023-03-23T00:34:16;100770.38;;;5.67;82.17
71857;BME280;63344;46.980;28.882;2023-03-23T00:36:50;100767.78;;;5.65;82.28
71857;BME280;63344;46.980;28.882;2023-03-23T00:39:17;100770.44;;;5.64;82.48
71857;BME280;63344;46.980;28.882;2023-03-23T00:41:44;100764.34;;;5.62;83.34
71857;BME280;63344;46.980;28.882;2023-03-23T00:44:11;100770.38;;;5.67;83.81
71857;BME280;63344;46.980;28.882;2023-03-23T00:46:49;100770.44;;;5.65;83.64
71857;BME280;63344;46.980;28.882;2023-03-23T00:49:17;100771.31;;;5.63;83.75
71857;BME280;63344;46.980;28.882;2023-03-23T00:51:44;100767.88;;;5.59;84.00
71857;BME280;63344;46.980;28.882;2023-03-23T00:54:11;100769.72;;;5.55;84.03
71857;BME280;63344;46.980;28.882;2023-03-23T00:56:38;100763.69;;;5.47;83.98
71857;BME280;63344;46.980;28.882;2023-03-23T00:59:05;100772.44;;;5.49;83.63
71857;BME280;63344;46.980;28.882;2023-03-23T01:01:32;100783.00;;;5.48;83.88
71857;BME280;63344;46.980;28.882;2023-03-23T01:03:59;100776.91;;;5.41;84.04
71857;BME280;63344;46.980;28.882;2023-03-23T01:06:33;100772.59;;;5.38;84.13
71857;BME280;63344;46.980;28.882;2023-03-23T01:09:02;100772.66;;;5.34;83.91
71857;BME280;63344;46.980;28.882;2023-03-23T01:11:34;100761.38;;;5.26;83.51
71857;BME280;63344;46.980;28.882;2023-03-23T01:14:00;100769.38;;;5.19;83.41
71857;BME280;63344;46.980;28.882;2023-03-23T01:16:27;100772.84;;;5.20;83.71
71857;BME280;63344;46.980;28.882;2023-03-23T01:18:53;100778.13;;;5.18;84.27
71857;BME280;63344;46.980;28.882;2023-03-23T01:21:20;100764.19;;;5.13;84.21
71857;BME280;63344;46.980;28.882;2023-03-23T01:23:47;100768.66;;;5.07;84.04
71857;BME280;63344;46.980;28.882;2023-03-23T01:26:18;100770.41;;;5.06;84.40
71857;BME280;63344;46.980;28.882;2023-03-23T01:28:44;100772.19;;;5.04;85.16
71857;BME280;63344;46.980;28.882;2023-03-23T01:31:16;100776.56;;;5.05;85.92
71857;BME280;63344;46.980;28.882;2023-03-23T01:33:43;100780.94;;;5.08;86.75
71857;BME280;63344;46.980;28.882;2023-03-23T01:36:13;100777.41;;;5.09;86.64
71857;BME280;63344;46.980;28.882;2023-03-23T01:38:42;100774.84;;;5.04;86.16
71857;BME280;63344;46.980;28.882;2023-03-23T01:41:09;100765.31;;;4.94;85.77
71857;BME280;63344;46.980;28.882;2023-03-23T01:43:36;100779.34;;;4.93;85.60
71857;BME280;63344;46.980;28.882;2023-03-23T01:46:02;100775.94;;;4.86;85.34
71857;BME280;63344;46.980;28.882;2023-03-23T01:48:34;100775.97;;;4.85;85.44
71857;BME280;63344;46.980;28.882;2023-03-23T01:51:12;100776.91;;;4.79;85.92
71857;BME280;63344;46.980;28.882;2023-03-23T01:53:56;100777.81;;;4.78;86.09
71857;BME280;63344;46.980;28.882;2023-03-23T01:56:29;100770.88;;;4.71;86.07
71857;BME280;63344;46.980;28.882;2023-03-23T01:58:58;100781.44;;;4.69;86.09
71857;BME280;63344;46.980;28.882;2023-03-23T02:01:25;100779.69;;;4.65;86.30
71857;BME280;63344;46.980;28.882;2023-03-23T02:03:54;100775.28;;;4.69;86.69
71857;BME280;63344;46.980;28.882;2023-03-23T02:06:22;100773.56;;;4.66;86.72
71857;BME280;63344;46.980;28.882;2023-03-23T02:08:50;100772.75;;;4.61;87.03
71857;BME280;63344;46.980;28.882;2023-03-23T02:11:18;100769.28;;;4.57;86.81
71857;BME280;63344;46.980;28.882;2023-03-23T02:13:46;100780.69;;;4.58;87.14
71857;BME280;63344;46.980;28.882;2023-03-23T02:39:16;100793.06;;;4.45;87.79
71857;BME280;63344;46.980;28.882;2023-03-23T02:41:52;100791.44;;;4.36;87.44
71857;BME280;63344;46.980;28.882;2023-03-23T02:44:22;100794.97;;;4.34;87.27
71857;BME280;63344;46.980;28.882;2023-03-23T02:46:50;100795.00;;;4.29;87.18
71857;BME280;63344;46.980;28.882;2023-03-23T02:49:19;100789.78;;;4.25;86.72
71857;BME280;63344;46.980;28.882;2023-03-23T02:51:46;100798.59;;;4.22;86.64
71857;BME280;63344;46.980;28.882;2023-03-23T02:54:17;100792.50;;;4.17;86.77
71857;BME280;63344;46.980;28.882;2023-03-23T02:56:44;100803.06;;;4.12;86.32
71857;BME280;63344;46.980;28.882;2023-03-23T02:59:11;100790.91;;;4.04;86.12
71857;BME280;63344;46.980;28.882;2023-03-23T03:04:13;100797.06;;;3.96;86.29
71857;BME280;63344;46.980;28.882;2023-03-23T03:09:48;100798.03;;;3.88;86.65
71857;BME280;63344;46.980;28.882;2023-03-23T03:12:41;100790.13;;;3.89;86.99
71857;BME280;63344;46.980;28.882;2023-03-23T03:17:35;100789.31;;;3.81;86.87
71857;BME280;63344;46.980;28.882;2023-03-23T03:20:06;100793.75;;;3.77;86.85
71857;BME280;63344;46.980;28.882;2023-03-23T03:22:39;100794.63;;;3.76;86.99
71857;BME280;63344;46.980;28.882;2023-03-23T03:25:14;100792.84;;;3.80;86.90
71857;BME280;63344;46.980;28.882;2023-03-23T03:27:44;100802.50;;;3.79;86.77
71857;BME280;63344;46.980;28.882;2023-03-23T03:30:13;100802.50;;;3.78;86.80
71857;BME280;63344;46.980;28.882;2023-03-23T03:32:48;100799.88;;;3.73;86.82
71857;BME280;63344;46.980;28.882;2023-03-23T03:35:17;100794.69;;;3.67;87.00
71857;BME280;63344;46.980;28.882;2023-03-23T03:37:43;100799.94;;;3.69;87.06
71857;BME280;63344;46.980;28.882;2023-03-23T03:40:14;100799.06;;;3.67;87.18
71857;BME280;63344;46.980;28.882;2023-03-23T03:42:43;100800.84;;;3.65;87.29
71857;BME280;63344;46.980;28.882;2023-03-23T03:45:19;100802.59;;;3.63;86.89
71857;BME280;63344;46.980;28.882;2023-03-23T03:47:46;100793.91;;;3.57;87.38
71857;BME280;63344;46.980;28.882;2023-03-23T03:50:12;100799.16;;;3.56;87.57
71857;BME280;63344;46.980;28.882;2023-03-23T03:52:38;100807.91;;;3.59;87.12
71857;BME280;63344;46.980;28.882;2023-03-23T03:55:07;100810.53;;;3.55;87.77
71857;BME280;63344;46.980;28.882;2023-03-23T03:57:34;100804.41;;;3.57;87.63
71857;BME280;63344;46.980;28.882;2023-03-23T04:00:03;100809.66;;;3.56;88.02
71857;BME280;63344;46.980;28.882;2023-03-23T04:02:40;100807.91;;;3.53;87.65
71857;BME280;63344;46.980;28.882;2023-03-23T04:05:07;100815.78;;;3.56;87.72
71857;BME280;63344;46.980;28.882;2023-03-23T04:07:34;100814.91;;;3.57;88.14
71857;BME280;63344;46.980;28.882;2023-03-23T04:10:04;100814.00;;;3.62;88.96
71857;BME280;63344;46.980;28.882;2023-03-23T04:12:32;100811.38;;;3.60;88.57
71857;BME280;63344;46.980;28.882;2023-03-23T04:14:59;100809.66;;;3.54;88.50
71857;BME280;63344;46.980;28.882;2023-03-23T04:17:25;100819.31;;;3.52;87.99
71857;BME280;63344;46.980;28.882;2023-03-23T04:19:53;100819.31;;;3.52;88.18
71857;BME280;63344;46.980;28.882;2023-03-23T04:22:23;100814.03;;;3.55;87.85
71857;BME280;63344;46.980;28.882;2023-03-23T04:24:57;100818.41;;;3.56;88.21
71857;BME280;63344;46.980;28.882;2023-03-23T04:27:25;100820.16;;;3.57;88.15
71857;BME280;63344;46.980;28.882;2023-03-23T04:29:57;100819.22;;;3.63;88.64
71857;BME280;63344;46.980;28.882;2023-03-23T04:32:25;100824.41;;;3.75;88.71
71857;BME280;63344;46.980;28.882;2023-03-23T04:34:56;100831.34;;;3.84;89.42
71857;BME280;63344;46.980;28.882;2023-03-23T04:37:24;100829.47;;;4.00;89.85
71857;BME280;63344;46.980;28.882;2023-03-23T04:39:52;100840.66;;;4.19;90.70
71857;BME280;63344;46.980;28.882;2023-03-23T04:42:30;100840.59;;;4.28;89.77
71857;BME280;63344;46.980;28.882;2023-03-23T04:44:58;100836.19;;;4.32;89.22
71857;BME280;63344;46.980;28.882;2023-03-23T04:47:26;100834.34;;;4.38;88.50
71857;BME280;63344;46.980;28.882;2023-03-23T04:49:56;100835.19;;;4.42;88.00
71857;BME280;63344;46.980;28.882;2023-03-23T04:52:25;100835.19;;;4.44;87.59
71857;BME280;63344;46.980;28.882;2023-03-23T04:54:55;100850.84;;;4.54;87.29
71857;BME280;63344;46.980;28.882;2023-03-23T04:57:24;100849.94;;;4.57;86.47
71857;BME280;63344;46.980;28.882;2023-03-23T04:59:53;100835.06;;;4.56;85.88
71857;BME280;63344;46.980;28.882;2023-03-23T05:02:21;100842.94;;;4.57;85.20
71857;BME280;63344;46.980;28.882;2023-03-23T05:04:52;100837.63;;;4.61;84.88
71857;BME280;63344;46.980;28.882;2023-03-23T05:07:18;100855.13;;;4.66;84.86
71857;BME280;63344;46.980;28.882;2023-03-23T05:09:47;100853.28;;;4.73;85.04
71857;BME280;63344;46.980;28.882;2023-03-23T05:12:14;100850.63;;;4.74;85.40
71857;BME280;63344;46.980;28.882;2023-03-23T05:14:42;100852.34;;;4.78;85.30
71857;BME280;63344;46.980;28.882;2023-03-23T05:17:09;100853.19;;;4.81;85.47
71857;BME280;63344;46.980;28.882;2023-03-23T05:19:35;100854.91;;;4.83;85.44
71857;BME280;63344;46.980;28.882;2023-03-23T05:22:03;100860.09;;;4.91;85.33
71857;BME280;63344;46.980;28.882;2023-03-23T05:24:30;100864.41;;;4.98;85.33
71857;BME280;63344;46.980;28.882;2023-03-23T05:26:59;100858.22;;;4.99;84.99
71857;BME280;63344;46.980;28.882;2023-03-23T05:29:26;100856.41;;;5.07;85.18
71857;BME280;63344;46.980;28.882;2023-03-23T05:31:52;100868.53;;;5.19;84.95
71857;BME280;63344;46.980;28.882;2023-03-23T05:34:23;100866.63;;;5.32;85.25
71857;BME280;63344;46.980;28.882;2023-03-23T05:36:49;100867.41;;;5.37;85.23
71857;BME280;63344;46.980;28.882;2023-03-23T05:39:16;100858.47;;;5.50;84.89
71857;BME280;63344;46.980;28.882;2023-03-23T05:41:43;100869.66;;;5.65;84.17
71857;BME280;63344;46.980;28.882;2023-03-23T05:44:10;100856.38;;;5.71;84.02
71857;BME280;63344;46.980;28.882;2023-03-23T05:46:41;100856.28;;;5.77;84.20
71857;BME280;63344;46.980;28.882;2023-03-23T05:49:09;100846.47;;;5.88;84.01
71857;BME280;63344;46.980;28.882;2023-03-23T05:51:36;100859.38;;;6.07;83.62
71857;BME280;63344;46.980;28.882;2023-03-23T05:54:02;100857.47;;;6.15;83.43
71857;BME280;63344;46.980;28.882;2023-03-23T05:56:29;100862.50;;;6.30;83.22
71857;BME280;63344;46.980;28.882;2023-03-23T05:59:00;100877.22;;;6.44;83.07
71857;BME280;63344;46.980;28.882;2023-03-23T06:01:26;100866.53;;;6.51;82.66
71857;BME280;63344;46.980;28.882;2023-03-23T06:03:54;100863.72;;;6.61;82.39
71857;BME280;63344;46.980;28.882;2023-03-23T06:06:28;100859.97;;;6.72;81.73
71857;BME280;63344;46.980;28.882;2023-03-23T06:08:58;100871.97;;;6.89;80.90
71857;BME280;63344;46.980;28.882;2023-03-23T06:11:25;100872.63;;;7.02;80.52
71857;BME280;63344;46.980;28.882;2023-03-23T06:13:52;100872.38;;;7.12;79.62
71857;BME280;63344;46.980;28.882;2023-03-23T06:16:18;100886.22;;;7.25;79.26
71857;BME280;63344;46.980;28.882;2023-03-23T06:18:45;100874.78;;;7.25;79.12
71857;BME280;63344;46.980;28.882;2023-03-23T06:21:15;100883.16;;;7.45;79.00
71857;BME280;63344;46.980;28.882;2023-03-23T06:23:44;100880.25;;;7.57;79.11
71857;BME280;63344;46.980;28.882;2023-03-23T06:26:18;100887.94;;;7.68;78.26
71857;BME280;63344;46.980;28.882;2023-03-23T06:28:45;100881.59;;;7.77;77.87
71857;BME280;63344;46.980;28.882;2023-03-23T06:31:11;100890.19;;;7.85;77.05
71857;BME280;63344;46.980;28.882;2023-03-23T06:33:38;100889.88;;;7.99;77.01
71857;BME280;63344;46.980;28.882;2023-03-23T06:36:06;100879.94;;;8.09;76.68
71857;BME280;63344;46.980;28.882;2023-03-23T06:38:32;100896.28;;;8.25;76.77
71857;BME280;63344;46.980;28.882;2023-03-23T06:40:59;100895.06;;;8.38;76.89
71857;BME280;63344;46.980;28.882;2023-03-23T06:43:25;100897.44;;;8.50;76.62
71857;BME280;63344;46.980;28.882;2023-03-23T06:45:51;100887.44;;;8.62;75.93
71857;BME280;63344;46.980;28.882;2023-03-23T06:48:21;100895.88;;;8.76;75.98
71857;BME280;63344;46.980;28.882;2023-03-23T06:50:49;100893.88;;;8.86;75.06
71857;BME280;63344;46.980;28.882;2023-03-23T06:53:17;100900.63;;;8.96;74.67
71857;BME280;63344;46.980;28.882;2023-03-23T06:55:46;100903.88;;;9.07;74.05
71857;BME280;63344;46.980;28.882;2023-03-23T06:58:13;100895.81;;;9.10;73.28
71857;BME280;63344;46.980;28.882;2023-03-23T07:00:39;100895.53;;;9.21;73.40
71857;BME280;63344;46.980;28.882;2023-03-23T07:03:06;100900.38;;;9.36;73.21
71857;BME280;63344;46.980;28.882;2023-03-23T07:05:33;100899.13;;;9.48;72.68
71857;BME280;63344;46.980;28.882;2023-03-23T07:08:02;100892.75;;;9.55;72.62
71857;BME280;63344;46.980;28.882;2023-03-23T07:10:30;100894.94;;;9.71;72.31
71857;BME280;63344;46.980;28.882;2023-03-23T07:12:56;100888.63;;;9.75;71.57
71857;BME280;63344;46.980;28.882;2023-03-23T07:15:24;100900.34;;;9.96;71.01
71857;BME280;63344;46.980;28.882;2023-03-23T07:17:50;100876.41;;;9.97;70.91
71857;BME280;63344;46.980;28.882;2023-03-23T07:20:17;100893.47;;;10.17;71.09
71857;BME280;63344;46.980;28.882;2023-03-23T07:22:43;100907.19;;;10.31;70.88
71857;BME280;63344;46.980;28.882;2023-03-23T07:25:10;100900.44;;;10.48;70.72
71857;BME280;63344;46.980;28.882;2023-03-23T07:27:52;100891.41;;;10.53;70.09
71857;BME280;63344;46.980;28.882;2023-03-23T07:30:19;100898.81;;;10.70;69.83
71857;BME280;63344;46.980;28.882;2023-03-23T07:32:45;100893.16;;;10.80;69.27
71857;BME280;63344;46.980;28.882;2023-03-23T07:35:11;100896.16;;;10.94;69.27
71857;BME280;63344;46.980;28.882;2023-03-23T07:37:37;100883.38;;;11.05;69.24
71857;BME280;63344;46.980;28.882;2023-03-23T07:40:04;100887.19;;;11.22;68.79
71857;BME280;63344;46.980;28.882;2023-03-23T07:42:45;100886.69;;;11.35;68.52
71857;BME280;63344;46.980;28.882;2023-03-23T07:45:15;100889.81;;;11.47;67.50
71857;BME280;63344;46.980;28.882;2023-03-23T07:47:41;100885.00;;;11.56;67.65
71857;BME280;63344;46.980;28.882;2023-03-23T07:50:08;100885.38;;;11.69;67.01
71857;BME280;63344;46.980;28.882;2023-03-23T07:52:35;100880.47;;;11.82;66.27
71857;BME280;63344;46.980;28.882;2023-03-23T07:55:03;100885.19;;;11.98;66.26
71857;BME280;63344;46.980;28.882;2023-03-23T07:57:30;100881.22;;;12.08;65.66
71857;BME280;63344;46.980;28.882;2023-03-23T08:00:00;100889.53;;;12.22;65.72
71857;BME280;63344;46.980;28.882;2023-03-23T08:02:26;100877.41;;;12.35;65.82
71857;BME280;63344;46.980;28.882;2023-03-23T08:04:53;100877.34;;;12.58;64.43
71857;BME280;63344;46.980;28.882;2023-03-23T08:07:22;100865.97;;;12.74;64.64
71857;BME280;63344;46.980;28.882;2023-03-23T08:09:48;100872.00;;;12.99;63.42
71857;BME280;63344;46.980;28.882;2023-03-23T08:12:14;100868.72;;;13.12;62.46
71857;BME280;63344;46.980;28.882;2023-03-23T08:14:41;100868.84;;;13.30;62.77
71857;BME280;63344;46.980;28.882;2023-03-23T08:17:07;100876.72;;;13.52;61.88
71857;BME280;63344;46.980;28.882;2023-03-23T08:19:35;100882.84;;;13.73;61.74
71857;BME280;63344;46.980;28.882;2023-03-23T08:22:05;100879.56;;;13.85;60.58
71857;BME280;63344;46.980;28.882;2023-03-23T08:24:33;100866.09;;;13.88;60.14
71857;BME280;63344;46.980;28.882;2023-03-23T08:27:00;100872.25;;;14.08;60.14
71857;BME280;63344;46.980;28.882;2023-03-23T08:29:26;100870.25;;;14.48;59.21
71857;BME280;63344;46.980;28.882;2023-03-23T08:31:53;100868.78;;;15.91;57.91
71857;BME280;63344;46.980;28.882;2023-03-23T08:34:20;100872.31;;;17.42;51.71
71857;BME280;63344;46.980;28.882;2023-03-23T08:36:47;100861.59;;;18.38;49.22
71857;BME280;63344;46.980;28.882;2023-03-23T08:39:32;100854.72;;;19.62;47.49
71857;BME280;63344;46.980;28.882;2023-03-23T08:41:59;100870.34;;;20.66;43.92
71857;BME280;63344;46.980;28.882;2023-03-23T08:44:25;100872.06;;;21.59;43.73
71857;BME280;63344;46.980;28.882;2023-03-23T08:46:52;100864.00;;;22.23;40.59
71857;BME280;63344;46.980;28.882;2023-03-23T08:49:23;100866.25;;;22.72;40.15
71857;BME280;63344;46.980;28.882;2023-03-23T08:51:51;100866.38;;;23.43;38.13
71857;BME280;63344;46.980;28.882;2023-03-23T08:54:17;100871.72;;;23.64;37.80
71857;BME280;63344;46.980;28.882;2023-03-23T08:56:43;100865.88;;;24.29;37.04
71857;BME280;63344;46.980;28.882;2023-03-23T08:59:10;100876.09;;;25.03;35.71
71857;BME280;63344;46.980;28.882;2023-03-23T09:01:37;100866.13;;;25.69;34.71
71857;BME280;63344;46.980;28.882;2023-03-23T09:04:06;100859.97;;;26.48;32.99
71857;BME280;63344;46.980;28.882;2023-03-23T09:06:50;100857.34;;;27.09;32.20
71857;BME280;63344;46.980;28.882;2023-03-23T09:09:16;100848.38;;;27.51;30.58
71857;BME280;63344;46.980;28.882;2023-03-23T09:11:42;100848.09;;;27.62;29.35
71857;BME280;63344;46.980;28.882;2023-03-23T09:14:08;100854.13;;;26.61;29.09
71857;BME280;63344;46.980;28.882;2023-03-23T09:16:35;100858.00;;;25.59;30.33
71857;BME280;63344;46.980;28.882;2023-03-23T09:19:01;100849.03;;;25.76;31.46
71857;BME280;63344;46.980;28.882;2023-03-23T09:21:28;100851.34;;;26.35;30.65
71857;BME280;63344;46.980;28.882;2023-03-23T09:23:58;100850.09;;;26.91;29.96
71857;BME280;63344;46.980;28.882;2023-03-23T09:26:27;100837.72;;;27.31;27.73
71857;BME280;63344;46.980;28.882;2023-03-23T09:28:57;100836.66;;;26.72;28.42
71857;BME280;63344;46.980;28.882;2023-03-23T09:31:24;100835.16;;;26.15;29.35
71857;BME280;63344;46.980;28.882;2023-03-23T09:33:55;100837.31;;;25.94;29.26
71857;BME280;63344;46.980;28.882;2023-03-23T09:36:22;100827.69;;;25.99;30.08
71857;BME280;63344;46.980;28.882;2023-03-23T09:38:52;100846.56;;;26.73;28.58
71857;BME280;63344;46.980;28.882;2023-03-23T09:41:30;100835.22;;;26.86;28.37
71857;BME280;63344;46.980;28.882;2023-03-23T09:49:53;100827.91;;;26.24;28.27
71857;BME280;63344;46.980;28.882;2023-03-23T09:52:21;100810.34;;;26.18;28.98
71857;BME280;63344;46.980;28.882;2023-03-23T09:54:54;100810.25;;;27.25;26.77
71857;BME280;63344;46.980;28.882;2023-03-23T09:57:34;100809.47;;;27.06;27.11
71857;BME280;63344;46.980;28.882;2023-03-23T10:00:12;100802.09;;;26.98;27.70
71857;BME280;63344;46.980;28.882;2023-03-23T10:03:05;100805.47;;;27.77;26.28
71857;BME280;63344;46.980;28.882;2023-03-23T10:05:37;100805.56;;;28.02;26.15
71857;BME280;63344;46.980;28.882;2023-03-23T10:08:11;100799.72;;;28.71;26.21
71857;BME280;63344;46.980;28.882;2023-03-23T10:15:58;100794.63;;;28.76;24.03
71857;BME280;63344;46.980;28.882;2023-03-23T10:18:41;100791.03;;;28.34;24.80
71857;BME280;63344;46.980;28.882;2023-03-23T10:21:13;100798.16;;;28.85;24.69
71857;BME280;63344;46.980;28.882;2023-03-23T10:23:51;100796.13;;;29.34;24.16
71857;BME280;63344;46.980;28.882;2023-03-23T10:29:24;100775.13;;;30.12;22.79
71857;BME280;63344;46.980;28.882;2023-03-23T10:32:08;100780.44;;;29.28;23.37
71857;BME280;63344;46.980;28.882;2023-03-23T10:40:05;100768.91;;;30.56;21.84
71857;BME280;63344;46.980;28.882;2023-03-23T10:42:37;100765.44;;;30.63;22.54
71857;BME280;63344;46.980;28.882;2023-03-23T10:45:26;100763.00;;;30.68;22.01
71857;BME280;63344;46.980;28.882;2023-03-23T10:50:50;100757.63;;;29.67;22.63
71857;BME280;63344;46.980;28.882;2023-03-23T10:53:25;100751.22;;;27.83;24.32
71857;BME280;63344;46.980;28.882;2023-03-23T10:55:53;100750.22;;;28.41;24.13
71857;BME280;63344;46.980;28.882;2023-03-23T10:58:27;100747.16;;;28.36;23.55
71857;BME280;63344;46.980;28.882;2023-03-23T11:00:59;100748.25;;;27.51;24.65
71857;BME280;63344;46.980;28.882;2023-03-23T11:03:37;100742.75;;;26.92;25.09
71857;BME280;63344;46.980;28.882;2023-03-23T11:06:27;100746.94;;;27.13;25.49
71857;BME280;63344;46.980;28.882;2023-03-23T11:09:13;100733.75;;;26.66;25.17
71857;BME280;63344;46.980;28.882;2023-03-23T11:11:51;100734.03;;;25.56;26.38
71857;BME280;63344;46.980;28.882;2023-03-23T11:14:33;100727.53;;;24.84;27.18
71857;BME280;63344;46.980;28.882;2023-03-23T11:17:25;100731.97;;;24.28;27.44
71857;BME280;63344;46.980;28.882;2023-03-23T11:20:26;100727.72;;;23.77;28.72
71857;BME280;63344;46.980;28.882;2023-03-23T11:22:57;100733.28;;;23.75;27.81
71857;BME280;63344;46.980;28.882;2023-03-23T11:25:24;100728.13;;;23.53;27.68
71857;BME280;63344;46.980;28.882;2023-03-23T11:27:53;100715.75;;;23.79;28.11
71857;BME280;63344;46.980;28.882;2023-03-23T11:30:25;100712.59;;;24.03;27.91
71857;BME280;63344;46.980;28.882;2023-03-23T11:32:54;100702.16;;;23.60;27.90
71857;BME280;63344;46.980;28.882;2023-03-23T11:35:26;100707.38;;;22.82;29.21
71857;BME280;63344;46.980;28.882;2023-03-23T11:37:55;100706.28;;;22.12;30.58
71857;BME280;63344;46.980;28.882;2023-03-23T11:40:25;100701.63;;;22.35;30.64
71857;BME280;63344;46.980;28.882;2023-03-23T11:45:46;100706.56;;;22.91;30.55
71857;BME280;63344;46.980;28.882;2023-03-23T11:48:43;100693.13;;;24.28;28.75
71857;BME280;63344;46.980;28.882;2023-03-23T11:51:19;100684.75;;;26.21;27.13
71857;BME280;63344;46.980;28.882;2023-03-23T11:54:02;100688.31;;;27.17;25.04
71857;BME280;63344;46.980;28.882;2023-03-23T11:56:34;100678.25;;;26.67;25.11
71857;BME280;63344;46.980;28.882;2023-03-23T11:59:01;100683.69;;;26.67;24.62
71857;BME280;63344;46.980;28.882;2023-03-23T12:06:42;100676.00;;;26.96;24.80
71857;BME280;63344;46.980;28.882;2023-03-23T12:14:44;100670.50;;;25.66;25.29
71857;BME280;63344;46.980;28.882;2023-03-23T12:18:09;100678.16;;;24.98;26.05
71857;BME280;63344;46.980;28.882;2023-03-23T12:20:17;100676.91;;;24.55;26.40
71857;BME280;63344;46.980;28.882;2023-03-23T12:31:28;100672.19;;;21.46;30.22
71857;BME280;63344;46.980;28.882;2023-03-23T12:43:18;100649.66;;;22.20;30.32
71857;BME280;63344;46.980;28.882;2023-03-23T12:48:55;100643.19;;;23.03;28.73
71857;BME280;63344;46.980;28.882;2023-03-23T12:57:35;100639.63;;;21.36;31.30
71857;BME280;63344;46.980;28.882;2023-03-23T13:00:23;100644.53;;;22.17;30.21
71857;BME280;63344;46.980;28.882;2023-03-23T13:02:57;100638.94;;;22.80;28.89
71857;BME280;63344;46.980;28.882;2023-03-23T13:08:04;100621.06;;;23.96;27.03
71857;BME280;63344;46.980;28.882;2023-03-23T13:10:41;100623.66;;;23.10;27.63
71857;BME280;63344;46.980;28.882;2023-03-23T13:13:25;100621.75;;;22.50;28.96
71857;BME280;63344;46.980;28.882;2023-03-23T13:21:32;100616.63;;;21.74;31.65
71857;BME280;63344;46.980;28.882;2023-03-23T13:24:06;100607.25;;;21.99;30.21
71857;BME280;63344;46.980;28.882;2023-03-23T13:26:39;100611.94;;;21.76;30.51
71857;BME280;63344;46.980;28.882;2023-03-23T13:29:12;100614.72;;;21.86;30.74
71857;BME280;63344;46.980;28.882;2023-03-23T13:31:41;100600.47;;;22.05;30.32
71857;BME280;63344;46.980;28.882;2023-03-23T13:34:30;100613.63;;;22.19;29.66
71857;BME280;63344;46.980;28.882;2023-03-23T13:39:31;100600.22;;;22.89;28.72
71857;BME280;63344;46.980;28.882;2023-03-23T13:50:11;100593.13;;;23.17;28.44
71857;BME280;63344;46.980;28.882;2023-03-23T13:58:09;100600.78;;;22.12;29.69
71857;BME280;63344;46.980;28.882;2023-03-23T14:00:48;100596.38;;;21.90;30.53
71857;BME280;63344;46.980;28.882;2023-03-23T14:05:48;100577.53;;;21.78;29.89
71857;BME280;63344;46.980;28.882;2023-03-23T14:10:55;100589.00;;;21.50;30.35
71857;BME280;63344;46.980;28.882;2023-03-23T14:16:04;100595.59;;;20.81;31.47
71857;BME280;63344;46.980;28.882;2023-03-23T14:18:39;100583.38;;;20.54;31.73
71857;BME280;63344;46.980;28.882;2023-03-23T14:21:14;100586.94;;;20.21;31.89
71857;BME280;63344;46.980;28.882;2023-03-23T14:23:40;100595.91;;;20.10;32.25
71857;BME280;63344;46.980;28.882;2023-03-23T14:26:26;100580.69;;;19.98;32.53
71857;BME280;63344;46.980;28.882;2023-03-23T14:28:59;100590.63;;;19.97;33.17
71857;BME280;63344;46.980;28.882;2023-03-23T14:31:56;100592.97;;;19.55;33.71
71857;BME280;63344;46.980;28.882;2023-03-23T14:34:37;100586.31;;;19.48;33.93
71857;BME280;63344;46.980;28.882;2023-03-23T14:37:11;100593.88;;;19.32;33.96
71857;BME280;63344;46.980;28.882;2023-03-23T14:39:38;100595.53;;;19.21;34.24
71857;BME280;63344;46.980;28.882;2023-03-23T14:42:29;100603.19;;;19.15;34.07
71857;BME280;63344;46.980;28.882;2023-03-23T14:44:56;100601.50;;;19.14;34.11
71857;BME280;63344;46.980;28.882;2023-03-23T14:47:35;100598.34;;;19.20;34.09
71857;BME280;63344;46.980;28.882;2023-03-23T14:50:21;100598.09;;;19.23;34.41
71857;BME280;63344;46.980;28.882;2023-03-23T14:52:48;100594.66;;;19.21;34.36
71857;BME280;63344;46.980;28.882;2023-03-23T14:55:22;100589.28;;;19.21;34.70
71857;BME280;63344;46.980;28.882;2023-03-23T14:57:50;100589.53;;;19.18;34.54
71857;BME280;63344;46.980;28.882;2023-03-23T15:00:21;100596.13;;;19.14;34.52
71857;BME280;63344;46.980;28.882;2023-03-23T15:02:52;100605.41;;;19.09;34.24
71857;BME280;63344;46.980;28.882;2023-03-23T15:05:56;100586.47;;;18.98;34.38
71857;BME280;63344;46.980;28.882;2023-03-23T15:08:27;100587.03;;;18.90;34.33
71857;BME280;63344;46.980;28.882;2023-03-23T15:13:42;100582.00;;;18.73;34.60